Time;durP1;ratioP1;P1;durP2;ratioP2;P2;SDS_P1;SDS_P2;PMS_P1;PMS_P2;Temp;Humidity;BMP_temperature;BMP_pressure;BME280_temperature;BME280_humidity;BME280_pressure;Samples;Min_cycle;Max_cycle;Signal;HPM_P1;HPM_P2
2021/12/09 00:01:36;;;;;;;20.70;8.65;;;0.60;94.40;;;;;;5044455;28;20063;-84
2021/12/09 00:04:11;;;;;;;22.05;8.07;;;0.60;94.30;;;;;;5062449;28;20049;-83
2021/12/09 00:06:43;;;;;;;21.55;7.90;;;0.60;94.20;;;;;;5042234;28;20070;-84
2021/12/09 00:09:17;;;;;;;25.98;8.13;;;0.50;94.20;;;;;;5045439;28;20049;-84
2021/12/09 00:11:47;;;;;;;20.52;8.40;;;0.50;94.00;;;;;;5041004;28;20135;-84
2021/12/09 00:14:25;;;;;;;20.20;8.40;;;0.50;94.20;;;;;;5041592;28;20049;-83
2021/12/09 00:16:54;;;;;;;21.23;8.88;;;0.60;94.50;;;;;;5039924;28;20617;-83
2021/12/09 00:19:21;;;;;;;20.75;9.45;;;0.50;94.40;;;;;;5050324;28;20055;-84
2021/12/09 00:21:47;;;;;;;15.40;7.93;;;0.50;94.40;;;;;;5047725;28;20492;-84
2021/12/09 00:24:15;;;;;;;26.85;10.43;;;0.60;94.60;;;;;;5037253;28;20108;-84
2021/12/09 00:26:46;;;;;;;25.60;9.05;;;0.60;94.90;;;;;;5043011;28;20046;-83
2021/12/09 00:29:15;;;;;;;19.05;8.48;;;0.70;95.10;;;;;;5038777;28;20096;-83
2021/12/09 00:31:43;;;;;;;20.95;8.50;;;0.70;94.80;;;;;;5037506;28;20041;-83
2021/12/09 00:34:10;;;;;;;21.90;9.02;;;0.60;94.60;;;;;;5043639;28;20057;-84
2021/12/09 00:36:41;;;;;;;23.45;8.60;;;0.80;95.00;;;;;;5034046;28;20052;-84
2021/12/09 00:39:10;;;;;;;17.00;7.93;;;0.70;94.60;;;;;;5041070;28;20109;-83
2021/12/09 00:41:38;;;;;;;20.60;8.48;;;0.60;94.40;;;;;;5036598;28;20148;-84
2021/12/09 00:44:09;;;;;;;20.20;9.15;;;0.50;94.30;;;;;;5041101;28;20080;-84
2021/12/09 00:46:38;;;;;;;19.05;9.18;;;0.50;94.50;;;;;;5041350;28;20155;-84
2021/12/09 00:49:08;;;;;;;23.73;8.80;;;0.50;94.60;;;;;;5037172;28;20093;-84
2021/12/09 00:51:35;;;;;;;24.52;10.23;;;0.50;94.50;;;;;;5045638;28;20078;-84
2021/12/09 00:54:03;;;;;;;25.38;9.35;;;0.50;94.60;;;;;;5048410;28;20053;-83
2021/12/09 00:56:30;;;;;;;14.35;8.18;;;0.50;94.80;;;;;;5053681;28;20176;-84
2021/12/09 00:58:57;;;;;;;27.52;7.57;;;0.60;95.10;;;;;;5042508;28;20056;-83
2021/12/09 01:01:27;;;;;;;20.38;8.77;;;0.50;94.80;;;;;;5037774;28;20046;-84
2021/12/09 01:03:56;;;;;;;21.95;9.38;;;0.50;94.80;;;;;;5036528;28;20539;-84
2021/12/09 01:06:23;;;;;;;23.13;8.35;;;0.70;95.30;;;;;;5048445;28;20072;-83
2021/12/09 01:08:50;;;;;;;16.98;7.97;;;0.60;95.00;;;;;;5048404;28;20053;-84
2021/12/09 01:11:17;;;;;;;19.13;8.32;;;0.60;94.80;;;;;;5039029;28;20050;-84
2021/12/09 01:13:44;;;;;;;17.63;8.23;;;0.50;94.80;;;;;;5043411;28;20057;-84
2021/12/09 01:16:11;;;;;;;25.08;8.98;;;0.60;94.90;;;;;;5042137;28;20077;-84
2021/12/09 01:18:40;;;;;;;18.63;8.40;;;0.60;95.10;;;;;;5042936;28;20151;-84
2021/12/09 01:21:09;;;;;;;22.08;9.05;;;0.80;95.40;;;;;;5041885;28;20108;-84
2021/12/09 01:23:36;;;;;;;26.08;9.15;;;0.70;95.00;;;;;;5041593;28;20130;-84
2021/12/09 01:26:06;;;;;;;20.02;8.23;;;0.70;94.90;;;;;;5038021;28;20054;-84
2021/12/09 01:31:37;;;;;;;24.45;9.05;;;0.60;94.90;;;;;;5031808;28;20080;-84
2021/12/09 01:34:05;;;;;;;20.00;8.32;;;0.80;95.40;;;;;;5043610;28;20085;-84
2021/12/09 01:36:36;;;;;;;18.30;7.68;;;0.90;95.30;;;;;;5042537;28;20056;-84
2021/12/09 01:39:07;;;;;;;17.00;7.55;;;0.80;95.00;;;;;;5046068;28;20548;-84
2021/12/09 01:41:34;;;;;;;22.30;8.38;;;0.80;94.90;;;;;;5048939;28;20057;-84
2021/12/09 01:44:01;;;;;;;24.92;8.55;;;0.80;94.90;;;;;;5042312;28;20512;-84
2021/12/09 01:46:28;;;;;;;18.27;8.75;;;0.80;95.00;;;;;;5046727;28;20053;-84
2021/12/09 01:48:55;;;;;;;27.33;8.77;;;0.90;95.10;;;;;;5040782;28;20115;-83
2021/12/09 01:51:22;;;;;;;18.77;7.53;;;1.00;95.20;;;;;;5042132;28;20132;-84
2021/12/09 01:53:50;;;;;;;18.95;7.90;;;1.00;95.10;;;;;;5062234;28;20080;-83
2021/12/09 01:56:24;;;;;;;19.70;8.57;;;1.00;95.10;;;;;;5060014;28;20046;-83
2021/12/09 01:59:02;;;;;;;16.67;7.82;;;1.10;95.10;;;;;;5038630;28;20154;-84
2021/12/09 02:01:32;;;;;;;17.90;7.60;;;1.00;94.90;;;;;;5045332;28;20143;-84
2021/12/09 02:04:03;;;;;;;20.40;7.97;;;1.10;94.90;;;;;;5045174;28;20053;-84
2021/12/09 02:06:30;;;;;;;20.95;7.80;;;1.10;95.00;;;;;;5045121;28;20517;-83
2021/12/09 02:08:57;;;;;;;20.58;7.57;;;1.10;94.80;;;;;;5045646;28;20056;-84
2021/12/09 02:11:24;;;;;;;16.70;7.13;;;1.00;94.70;;;;;;5045836;28;20049;-84
2021/12/09 02:13:55;;;;;;;22.63;7.78;;;1.00;94.60;;;;;;5045113;28;20100;-84
2021/12/09 02:16:22;;;;;;;18.00;7.43;;;1.00;94.70;;;;;;5043805;28;20054;-83
2021/12/09 02:18:49;;;;;;;16.80;7.28;;;1.00;94.70;;;;;;5042108;28;20054;-84
2021/12/09 02:21:23;;;;;;;16.95;7.40;;;1.00;94.80;;;;;;5045275;28;20064;-84
2021/12/09 02:24:04;;;;;;;17.48;6.97;;;1.00;94.60;;;;;;5046758;28;20160;-83
2021/12/09 02:26:34;;;;;;;22.23;7.40;;;1.00;94.50;;;;;;5041760;28;20054;-84
2021/12/09 02:29:02;;;;;;;28.52;8.65;;;0.90;94.40;;;;;;5044944;28;20054;-83
2021/12/09 02:31:31;;;;;;;18.42;7.78;;;1.00;94.70;;;;;;5048611;28;20045;-84
2021/12/09 02:33:58;;;;;;;24.40;7.93;;;1.00;94.90;;;;;;5041057;28;20050;-84
2021/12/09 02:36:26;;;;;;;13.57;6.50;;;1.10;94.80;;;;;;5047203;28;20196;-84
2021/12/09 02:38:53;;;;;;;18.70;7.35;;;1.00;94.50;;;;;;5041828;28;20054;-84
2021/12/09 02:41:24;;;;;;;17.52;7.20;;;0.90;94.40;;;;;;5043698;28;20440;-84
2021/12/09 02:43:55;;;;;;;24.92;7.63;;;0.90;94.50;;;;;;5036426;28;20088;-84
2021/12/09 02:46:24;;;;;;;18.08;7.07;;;0.90;94.50;;;;;;5048787;28;20038;-84
2021/12/09 02:48:52;;;;;;;24.38;7.90;;;0.90;94.60;;;;;;5043609;28;20054;-83
2021/12/09 02:51:22;;;;;;;15.27;6.88;;;0.90;94.80;;;;;;5039513;28;20065;-83
2021/12/09 02:53:49;;;;;;;18.65;6.88;;;0.90;94.80;;;;;;5041480;28;20050;-84
2021/12/09 02:56:16;;;;;;;20.80;7.45;;;0.90;94.70;;;;;;5041475;28;20129;-84
2021/12/09 02:58:45;;;;;;;20.63;7.43;;;0.90;94.70;;;;;;5039825;28;20054;-84
2021/12/09 03:01:23;;;;;;;18.13;6.70;;;1.00;94.80;;;;;;5047023;28;20053;-84
2021/12/09 03:03:59;;;;;;;16.67;7.00;;;0.90;94.50;;;;;;5048223;28;20943;-83
2021/12/09 03:06:35;;;;;;;17.50;6.57;;;0.80;94.40;;;;;;5047786;28;20082;-84
2021/12/09 03:09:14;;;;;;;18.90;6.28;;;0.80;94.50;;;;;;5038852;28;20061;-84
2021/12/09 03:11:43;;;;;;;21.58;6.65;;;0.70;94.40;;;;;;5035099;28;20227;-84
2021/12/09 03:14:14;;;;;;;24.95;7.30;;;0.80;94.80;;;;;;5045661;28;20057;-84
2021/12/09 03:16:41;;;;;;;22.02;7.30;;;0.70;94.60;;;;;;5041614;28;20089;-84
2021/12/09 03:19:09;;;;;;;22.80;6.68;;;0.70;94.50;;;;;;5044712;28;20054;-85
2021/12/09 03:21:41;;;;;;;17.55;7.18;;;0.50;94.30;;;;;;5034922;28;20085;-84
2021/12/09 03:24:12;;;;;;;24.63;7.90;;;0.50;94.40;;;;;;5046716;28;20147;-84
2021/12/09 03:26:49;;;;;;;19.02;7.45;;;0.50;94.70;;;;;;5043899;28;20076;-84
2021/12/09 03:29:19;;;;;;;22.45;7.28;;;0.60;94.90;;;;;;5044338;28;20894;-84
2021/12/09 03:31:50;;;;;;;27.58;7.50;;;0.60;95.10;;;;;;5041736;28;20085;-84
2021/12/09 03:34:19;;;;;;;17.02;7.10;;;0.60;95.00;;;;;;5046523;28;20085;-84
2021/12/09 03:36:48;;;;;;;18.20;6.40;;;0.60;95.00;;;;;;5037542;28;20125;-84
2021/12/09 03:39:18;;;;;;;21.08;6.80;;;0.50;94.90;;;;;;5037077;28;20141;-84
2021/12/09 03:41:48;;;;;;;26.85;7.18;;;0.50;94.90;;;;;;5065376;28;20141;-84
2021/12/09 03:44:15;;;;;;;24.65;6.78;;;0.50;94.90;;;;;;5044168;28;20053;-84
2021/12/09 03:46:43;;;;;;;24.75;7.72;;;0.50;94.90;;;;;;5041815;28;20128;-84
2021/12/09 03:49:10;;;;;;;20.48;7.25;;;0.40;94.90;;;;;;5045177;28;20132;-84
2021/12/09 03:51:37;;;;;;;22.73;7.88;;;0.50;95.00;;;;;;5061720;28;20177;-84
2021/12/09 03:54:11;;;;;;;17.20;6.85;;;0.50;95.00;;;;;;5038331;28;20985;-84
2021/12/09 03:56:39;;;;;;;20.67;6.80;;;0.50;95.00;;;;;;5045061;28;20141;-84
2021/12/09 03:59:08;;;;;;;23.88;7.45;;;0.40;95.00;;;;;;5047877;28;20136;-84
2021/12/09 04:01:36;;;;;;;18.90;7.30;;;0.50;95.20;;;;;;5034013;28;20074;-84
2021/12/09 04:04:04;;;;;;;21.42;7.05;;;0.60;95.30;;;;;;5039672;28;20108;-84
2021/12/09 04:06:32;;;;;;;29.98;7.72;;;0.60;95.20;;;;;;5043846;28;20105;-85
2021/12/09 04:09:00;;;;;;;19.25;6.85;;;0.60;95.20;;;;;;5045497;28;20145;-84
2021/12/09 04:11:28;;;;;;;28.95;7.03;;;0.50;95.00;;;;;;5043579;28;20796;-84
2021/12/09 04:13:58;;;;;;;18.40;6.25;;;0.40;94.90;;;;;;5048773;28;20108;-84
2021/12/09 04:16:29;;;;;;;15.88;5.80;;;0.50;94.90;;;;;;5038222;28;20050;-84
2021/12/09 04:18:57;;;;;;;20.33;6.20;;;0.40;94.90;;;;;;5041493;28;20846;-84
2021/12/09 04:21:24;;;;;;;18.17;6.53;;;0.40;94.90;;;;;;5038626;28;20051;-84
2021/12/09 04:23:51;;;;;;;20.15;5.93;;;0.30;95.00;;;;;;5035027;28;20050;-84
2021/12/09 04:26:18;;;;;;;35.45;6.75;;;0.40;95.10;;;;;;5038843;28;20137;-84
2021/12/09 04:28:45;;;;;;;17.60;6.07;;;0.40;95.20;;;;;;5036124;28;20141;-84
2021/12/09 04:31:18;;;;;;;19.38;5.93;;;0.40;95.20;;;;;;5054974;28;20542;-84
2021/12/09 04:33:45;;;;;;;14.43;5.70;;;0.40;95.10;;;;;;5066613;28;20088;-84
2021/12/09 04:36:12;;;;;;;15.88;6.88;;;0.40;95.20;;;;;;5053403;28;20072;-84
2021/12/09 04:38:39;;;;;;;19.48;5.53;;;0.40;94.90;;;;;;5053189;28;20125;-84
2021/12/09 04:41:07;;;;;;;20.60;6.97;;;0.30;94.90;;;;;;5035763;28;20057;-84
2021/12/09 04:43:40;;;;;;;22.88;6.53;;;0.30;94.80;;;;;;5046905;28;20054;-84
2021/12/09 04:46:07;;;;;;;;;;;0.30;95.10;;;;;;5050219;28;20091;-83
2021/12/09 04:48:37;;;;;;;21.00;5.40;;;0.40;95.10;;;;;;5034204;28;20393;-83
2021/12/09 04:51:05;;;;;;;18.85;5.78;;;0.40;95.20;;;;;;5048841;28;20811;-83
2021/12/09 04:53:32;;;;;;;11.57;5.32;;;0.30;95.00;;;;;;5042233;28;20103;-83
2021/12/09 04:56:00;;;;;;;12.88;5.07;;;0.40;95.10;;;;;;5047405;28;20029;-82
2021/12/09 04:58:27;;;;;;;17.02;5.05;;;0.40;95.00;;;;;;5061141;28;20057;-83
2021/12/09 05:00:59;;;;;;;23.15;5.00;;;0.30;94.90;;;;;;5049909;28;20136;-83
2021/12/09 05:03:29;;;;;;;23.45;5.60;;;0.30;94.80;;;;;;5053134;28;20136;-83
2021/12/09 05:05:59;;;;;;;19.45;5.43;;;0.30;94.90;;;;;;5045211;28;20049;-83
2021/12/09 05:08:29;;;;;;;19.48;5.40;;;0.20;94.90;;;;;;5048479;28;20053;-83
2021/12/09 05:13:27;;;;;;;20.20;5.53;;;0.20;95.10;;;;;;5043170;28;20479;-83
2021/12/09 05:15:56;;;;;;;24.08;6.13;;;0.20;95.00;;;;;;5041309;28;20054;-83
2021/12/09 05:18:25;;;;;;;25.55;6.68;;;0.20;95.00;;;;;;5043966;28;20061;-83
2021/12/09 05:20:53;;;;;;;20.58;5.97;;;0.20;95.10;;;;;;5040194;28;20853;-83
2021/12/09 05:23:22;;;;;;;22.13;5.68;;;0.20;95.20;;;;;;5035460;28;20057;-83
2021/12/09 05:25:49;;;;;;;25.17;5.88;;;0.20;95.20;;;;;;5038522;28;20468;-84
2021/12/09 05:28:17;;;;;;;23.50;4.72;;;0.20;95.20;;;;;;5039747;28;20058;-83
2021/12/09 05:33:33;;;;;;;19.13;6.07;;;0.20;95.10;;;;;;5048258;28;20053;-83
2021/12/09 05:36:00;;;;;;;24.60;4.97;;;0.10;95.00;;;;;;5035419;28;20081;-83
2021/12/09 05:38:27;;;;;;;19.90;6.03;;;0.10;94.80;;;;;;5040488;28;20772;-84
2021/12/09 05:40:54;;;;;;;21.80;5.63;;;0.10;95.00;;;;;;5039274;28;20050;-83
2021/12/09 05:43:22;;;;;;;19.15;5.30;;;0.10;95.10;;;;;;5043693;28;20717;-84
2021/12/09 05:45:49;;;;;;;17.77;5.75;;;0.10;95.20;;;;;;5038530;28;20064;-84
2021/12/09 05:48:18;;;;;;;25.60;7.45;;;0.10;95.30;;;;;;5036422;28;20050;-84
2021/12/09 05:50:52;;;;;;;19.55;5.53;;;0.10;95.30;;;;;;5045031;28;20137;-84
2021/12/09 05:53:24;;;;;;;23.42;5.35;;;0.20;95.40;;;;;;5046151;28;20042;-84
2021/12/09 05:56:21;;;;;;;21.30;5.32;;;0.20;95.40;;;;;;5036209;28;20053;-84
2021/12/09 05:59:07;;;;;;;15.67;6.30;;;0.30;95.60;;;;;;5042255;28;20057;-84
2021/12/09 06:01:59;;;;;;;15.27;5.22;;;0.30;95.40;;;;;;5042724;28;20065;-84
2021/12/09 06:04:29;;;;;;;19.70;5.50;;;0.30;95.40;;;;;;5035675;28;20966;-84
2021/12/09 06:06:58;;;;;;;21.00;5.65;;;0.30;95.30;;;;;;5036342;28;20548;-84
2021/12/09 06:09:32;;;;;;;18.95;5.35;;;0.30;95.20;;;;;;5034797;28;20923;-85
2021/12/09 06:12:01;;;;;;;19.27;5.18;;;0.30;95.00;;;;;;5039470;28;20552;-85
2021/12/09 06:14:45;;;;;;;24.75;5.68;;;0.20;94.90;;;;;;5035731;28;20065;-84
2021/12/09 06:17:21;;;;;;;22.88;5.05;;;0.30;95.10;;;;;;5039896;28;20179;-84
2021/12/09 06:19:48;;;;;;;16.10;5.70;;;0.20;94.90;;;;;;5050032;28;20060;-84
2021/12/09 06:22:19;;;;;;;22.17;6.05;;;0.20;95.10;;;;;;5038417;28;20058;-85
2021/12/09 06:24:46;;;;;;;20.88;5.30;;;0.30;95.30;;;;;;5060249;28;20085;-85
2021/12/09 06:27:15;;;;;;;18.45;4.95;;;0.30;95.20;;;;;;5040890;28;20062;-84
2021/12/09 06:29:48;;;;;;;18.77;5.45;;;0.30;95.10;;;;;;5041550;28;20148;-84
2021/12/09 06:32:26;;;;;;;18.30;5.40;;;0.30;94.80;;;;;;5036359;28;20058;-84
2021/12/09 06:35:03;;;;;;;18.08;5.55;;;0.20;94.80;;;;;;5047217;28;20050;-84
2021/12/09 06:37:39;;;;;;;20.13;5.75;;;0.20;94.70;;;;;;5067059;28;20104;-84
2021/12/09 06:40:18;;;;;;;15.15;6.20;;;0.10;94.70;;;;;;5046829;28;20088;-84
2021/12/09 06:42:47;;;;;;;17.30;5.72;;;0.10;94.90;;;;;;5050971;28;20071;-84
2021/12/09 06:45:18;;;;;;;16.27;5.32;;;0.10;95.10;;;;;;5053078;28;20046;-84
2021/12/09 06:47:45;;;;;;;13.23;6.20;;;0.10;95.00;;;;;;5055094;28;20440;-85
2021/12/09 06:50:19;;;;;;;19.45;5.70;;;0.10;95.10;;;;;;5040458;28;20056;-84
2021/12/09 06:52:48;;;;;;;17.33;5.30;;;0.10;95.10;;;;;;5054613;28;20045;-84
2021/12/09 06:55:20;;;;;;;16.38;6.18;;;0.10;95.30;;;;;;5038408;28;20866;-85
2021/12/09 06:57:48;;;;;;;27.38;6.15;;;0.10;95.20;;;;;;5045960;28;20030;-84
2021/12/09 07:00:31;;;;;;;16.60;5.38;;;0.10;95.10;;;;;;5040351;28;20069;-84
2021/12/09 07:03:01;;;;;;;17.23;5.20;;;0.00;95.00;;;;;;5048339;28;20060;-84
2021/12/09 07:05:42;;;;;;;22.45;5.70;;;0.00;95.00;;;;;;5038248;28;20056;-84
2021/12/09 07:08:13;;;;;;;22.10;5.53;;;0.00;95.10;;;;;;5053665;28;20041;-84
2021/12/09 07:10:53;;;;;;;18.45;5.97;;;0.00;95.10;;;;;;5057472;28;20418;-84
2021/12/09 07:13:35;;;;;;;16.90;6.03;;;0.00;95.30;;;;;;5048123;28;20054;-84
2021/12/09 07:16:11;;;;;;;23.17;7.05;;;0.00;95.20;;;;;;5048977;28;20046;-84
2021/12/09 07:18:44;;;;;;;22.45;6.50;;;0.00;95.40;;;;;;5035578;28;20046;-84
2021/12/09 07:21:20;;;;;;;25.13;6.47;;;0.00;95.50;;;;;;5049495;28;20050;-83
2021/12/09 07:23:53;;;;;;;30.30;6.75;;;0.10;95.60;;;;;;5043040;28;20072;-83
2021/12/09 07:26:28;;;;;;;21.73;5.90;;;0.10;95.60;;;;;;5046234;28;20045;-84
2021/12/09 07:32:46;;;;;;;;;;;;;;;;;;;;;
2021/12/09 07:35:30;;;;;;;;;;;;;;;;;;;;;
2021/12/09 07:38:17;;;;;;;17.52;5.93;;;0.20;95.40;;;;;;5045074;28;20062;-84
2021/12/09 07:40:44;;;;;;;21.98;5.88;;;0.20;95.50;;;;;;5044163;28;20061;-84
2021/12/09 07:43:17;;;;;;;21.77;6.90;;;0.20;95.60;;;;;;5047094;28;20053;-83
2021/12/09 07:45:44;;;;;;;22.05;8.15;;;0.20;95.50;;;;;;5060343;28;20045;-83
2021/12/09 07:48:12;;;;;;;17.92;6.18;;;0.30;95.60;;;;;;5042959;28;20049;-83
2021/12/09 07:50:44;;;;;;;18.58;5.72;;;0.30;95.50;;;;;;5041443;28;20509;-83
2021/12/09 07:53:22;;;;;;;20.83;5.45;;;0.40;95.40;;;;;;5048934;28;20501;-83
2021/12/09 07:55:54;;;;;;;18.05;5.88;;;0.30;95.30;;;;;;5046576;28;20564;-83
2021/12/09 07:58:25;;;;;;;23.42;6.05;;;0.40;95.30;;;;;;5050767;28;20060;-83
2021/12/09 08:01:02;;;;;;;16.20;5.30;;;0.40;95.20;;;;;;5062411;28;20049;-83
2021/12/09 08:03:50;;;;;;;;;;;;;;;;;;;;;
2021/12/09 08:06:36;;;;;;;22.38;6.03;;;0.40;95.10;;;;;;5048868;28;20069;-84
2021/12/09 08:09:05;;;;;;;20.13;6.35;;;0.40;95.20;;;;;;5047631;28;20069;-84
2021/12/09 08:11:45;;;;;;;22.85;5.70;;;0.50;95.40;;;;;;5043197;28;20062;-84
2021/12/09 08:14:20;;;;;;;20.27;5.47;;;0.70;95.10;;;;;;5058951;28;20817;-83
2021/12/09 08:17:13;;;;;;;13.10;5.40;;;0.70;94.80;;;;;;5050507;28;20053;-83
2021/12/09 08:20:10;;;;;;;14.43;5.27;;;0.70;94.70;;;;;;5002426;28;20061;-83
2021/12/09 08:22:53;;;;;;;16.05;5.05;;;0.80;94.80;;;;;;5044409;28;20069;-84
2021/12/09 08:26:01;;;;;;;19.30;5.20;;;0.80;94.80;;;;;;5047220;28;20064;-83
2021/12/09 08:28:44;;;;;;;26.85;5.82;;;0.90;94.70;;;;;;5044832;28;20289;-83
2021/12/09 08:31:29;;;;;;;;;;;;;;;;;;;;;
2021/12/09 08:34:17;;;;;;;14.85;5.15;;;1.00;94.60;;;;;;5043975;28;20061;-84
2021/12/09 08:36:54;;;;;;;13.90;5.60;;;1.10;94.50;;;;;;5046835;28;20045;-84
2021/12/09 08:39:32;;;;;;;14.13;5.57;;;1.10;94.30;;;;;;5045017;28;20056;-83
2021/12/09 08:42:03;;;;;;;13.13;5.18;;;1.20;94.00;;;;;;5046225;28;20052;-84
2021/12/09 08:44:36;;;;;;;13.65;4.93;;;1.30;93.80;;;;;;5063186;28;20050;-83
2021/12/09 08:47:03;;;;;;;13.68;5.60;;;1.30;93.60;;;;;;5049689;28;20223;-84
2021/12/09 08:49:49;;;;;;;10.38;4.75;;;1.30;93.30;;;;;;5049140;28;20180;-84
2021/12/09 08:52:29;;;;;;;22.02;5.20;;;1.30;93.40;;;;;;5058125;28;20057;-84
2021/12/09 08:55:05;;;;;;;22.48;5.72;;;1.40;93.40;;;;;;5044741;28;20050;-83
2021/12/09 08:58:14;;;;;;;14.18;5.25;;;1.30;93.10;;;;;;5038853;28;20090;-84
2021/12/09 09:00:56;;;;;;;10.10;5.10;;;1.40;93.20;;;;;;5042680;28;20129;-83
2021/12/09 09:03:34;;;;;;;16.92;5.30;;;1.40;93.30;;;;;;5045232;28;20119;-84
2021/12/09 09:06:31;;;;;;;17.02;5.75;;;1.50;93.40;;;;;;5047311;28;20088;-83
2021/12/09 09:09:07;;;;;;;16.27;6.10;;;1.60;93.40;;;;;;5042989;28;20967;-84
2021/12/09 09:11:57;;;;;;;;;;;;;;;;;;;;;
2021/12/09 09:14:52;;;;;;;15.88;6.22;;;1.80;93.60;;;;;;5045756;28;20074;-83
2021/12/09 09:17:37;;;;;;;16.95;5.53;;;1.90;92.80;;;;;;5046839;28;20046;-83
2021/12/09 09:20:16;;;;;;;12.80;5.90;;;2.00;92.20;;;;;;5045851;28;20060;-83
2021/12/09 09:22:57;;;;;;;17.13;5.60;;;2.10;92.30;;;;;;5033692;28;20149;-84
2021/12/09 09:25:31;;;;;;;13.73;6.22;;;2.20;91.70;;;;;;5047195;28;20489;-84
2021/12/09 09:28:04;;;;;;;17.63;7.00;;;2.40;92.20;;;;;;5062101;28;20405;-84
2021/12/09 09:30:43;;;;;;;16.80;6.90;;;2.60;92.60;;;;;;5047225;28;20572;-84
2021/12/09 09:33:21;;;;;;;18.83;6.47;;;2.80;92.10;;;;;;5045207;28;20056;-83
2021/12/09 09:36:32;;;;;;;11.05;5.10;;;3.00;90.80;;;;;;5045075;28;20114;-84
2021/12/09 09:39:27;;;;;;;18.23;5.80;;;3.10;89.30;;;;;;5046363;28;20591;-84
2021/12/09 09:44:58;;;;;;;16.70;5.70;;;3.00;89.30;;;;;;5044902;28;20588;-84
2021/12/09 09:48:12;;;;;;;14.77;6.15;;;3.00;89.90;;;;;;5048114;28;20543;-84
2021/12/09 09:50:56;;;;;;;15.87;5.93;;;2.90;90.60;;;;;;5048473;28;20500;-84
2021/12/09 09:53:46;;;;;;;;;;;2.90;89.70;;;;;;5047719;28;20103;-84
2021/12/09 09:59:17;;;;;;;19.58;7.13;;;2.80;90.00;;;;;;5047586;28;20041;-84
2021/12/09 10:01:52;;;;;;;19.73;6.85;;;2.90;90.80;;;;;;5045699;28;20950;-84
2021/12/09 10:04:33;;;;;;;16.60;6.53;;;2.90;90.30;;;;;;5047266;28;20492;-84
2021/12/09 10:07:39;;;;;;;14.93;6.40;;;2.90;90.40;;;;;;5045049;28;20053;-84
2021/12/09 10:10:23;;;;;;;23.25;7.35;;;3.00;90.70;;;;;;5043126;28;20060;-84
2021/12/09 10:13:14;;;;;;;13.93;6.10;;;3.00;90.70;;;;;;5046711;28;20136;-84
2021/12/09 10:18:54;;;;;;;16.70;5.90;;;3.00;89.30;;;;;;5042033;28;20049;-84
2021/12/09 10:24:39;;;;;;;16.08;6.60;;;3.00;89.20;;;;;;5050240;28;20773;-84
2021/12/09 10:27:33;;;;;;;17.48;6.40;;;3.10;90.60;;;;;;5043737;28;20057;-84
2021/12/09 10:30:26;;;;;;;20.50;6.68;;;3.10;90.00;;;;;;5036508;28;20057;-84
2021/12/09 10:33:02;;;;;;;21.83;6.97;;;3.20;90.50;;;;;;5043847;28;20941;-84
2021/12/09 10:35:51;;;;;;;15.30;7.50;;;3.30;90.90;;;;;;5050610;28;20045;-84
2021/12/09 10:38:30;;;;;;;23.98;7.43;;;3.30;90.50;;;;;;5049455;28;20056;-84
2021/12/09 10:41:05;;;;;;;18.30;7.70;;;3.30;89.80;;;;;;5047652;28;20755;-84
2021/12/09 10:43:34;;;;;;;14.43;7.35;;;3.30;89.60;;;;;;5046791;28;20551;-84
2021/12/09 10:46:54;;;;;;;17.52;7.40;;;3.30;89.40;;;;;;5056285;28;20083;-84
2021/12/09 10:49:25;;;;;;;19.95;7.22;;;3.40;90.30;;;;;;5045626;28;20056;-84
2021/12/09 10:52:35;;;;;;;;;;;;;;;;;;;;;
2021/12/09 10:55:26;;;;;;;20.70;7.93;;;3.50;89.80;;;;;;5045626;28;20049;-84
2021/12/09 10:58:14;;;;;;;18.13;7.43;;;3.60;89.90;;;;;;5045571;28;20509;-84
2021/12/09 11:01:03;;;;;;;21.10;8.52;;;3.50;88.10;;;;;;5044646;28;20061;-83
2021/12/09 11:04:20;;;;;;;16.05;7.45;;;3.60;89.70;;;;;;5040279;28;20053;-83
2021/12/09 11:06:57;;;;;;;22.55;8.25;;;3.50;88.80;;;;;;4989435;28;20035;-83
2021/12/09 11:09:29;;;;;;;20.27;9.10;;;3.50;89.00;;;;;;4973451;28;20054;-84
2021/12/09 11:11:57;;;;;;;24.23;9.52;;;3.60;89.70;;;;;;4991851;28;20106;-84
2021/12/09 11:14:28;;;;;;;19.60;8.43;;;3.70;90.30;;;;;;4992855;28;20102;-84
2021/12/09 11:17:05;;;;;;;24.73;8.57;;;3.70;90.40;;;;;;4991498;28;20062;-84
2021/12/09 11:19:48;;;;;;;27.25;8.85;;;3.80;90.10;;;;;;4989736;28;20895;-84
2021/12/09 11:22:20;;;;;;;24.55;8.68;;;3.70;88.80;;;;;;4985362;28;20117;-84
2021/12/09 11:25:34;;;;;;;20.33;9.45;;;3.80;90.00;;;;;;4991048;28;20093;-84
2021/12/09 11:28:13;;;;;;;22.95;9.07;;;3.80;90.00;;;;;;4972442;28;20070;-84
2021/12/09 11:31:17;;;;;;;22.33;9.75;;;3.90;89.30;;;;;;4989101;28;20059;-85
2021/12/09 11:33:54;;;;;;;23.77;9.80;;;3.70;88.40;;;;;;4982327;28;20133;-84
2021/12/09 11:36:43;;;;;;;21.55;9.13;;;3.80;89.40;;;;;;4993775;28;20172;-84
2021/12/09 11:39:23;;;;;;;21.58;9.13;;;3.80;89.50;;;;;;4988301;28;20187;-84
2021/12/09 11:41:51;;;;;;;21.35;8.45;;;3.80;89.90;;;;;;5002211;28;20819;-84
2021/12/09 11:44:24;;;;;;;21.77;9.43;;;3.80;88.80;;;;;;5041845;28;20137;-84
2021/12/09 11:46:52;;;;;;;19.92;9.77;;;3.70;89.00;;;;;;5043581;28;20460;-83
2021/12/09 11:49:19;;;;;;;17.58;9.07;;;3.80;88.90;;;;;;5041482;28;21026;-84
2021/12/09 11:51:51;;;;;;;21.88;9.75;;;3.90;89.60;;;;;;5040568;28;20819;-84
2021/12/09 11:54:22;;;;;;;24.17;9.40;;;3.90;89.80;;;;;;5042737;28;20906;-84
2021/12/09 11:57:12;;;;;;;28.25;10.77;;;3.90;88.80;;;;;;5045121;28;20149;-84
2021/12/09 12:15:33;;;;;;;23.33;10.10;;;4.30;89.60;;;;;;5007954;28;20058;-83
2021/12/09 12:21:52;;;;;;;18.77;9.45;;;4.30;88.40;;;;;;4972235;28;20055;-84
2021/12/09 12:28:16;;;;;;;19.08;10.55;;;4.30;87.70;;;;;;4956922;28;20827;-84
2021/12/09 12:31:07;;;;;;;21.85;10.45;;;4.30;88.90;;;;;;4964045;28;20058;-84
2021/12/09 12:37:33;;;;;;;20.52;11.40;;;4.40;88.90;;;;;;4948782;28;20079;-84
2021/12/09 12:40:12;;;;;;;22.50;11.77;;;4.40;89.20;;;;;;4962900;28;20036;-84
2021/12/09 12:43:02;;;;;;;22.33;10.98;;;4.30;88.20;;;;;;4936627;28;20059;-84
2021/12/09 12:46:17;;;;;;;17.48;10.85;;;4.40;88.40;;;;;;4931036;28;20059;-84
2021/12/09 12:54:47;;;;;;;20.63;11.82;;;4.50;88.80;;;;;;4950414;28;20791;-84
2021/12/09 12:57:43;;;;;;;23.98;12.25;;;4.50;88.80;;;;;;5046511;28;20061;-85
2021/12/09 13:00:35;;;;;;;23.20;12.07;;;4.50;88.80;;;;;;5042091;28;20154;-83
2021/12/09 13:03:41;;;;;;;20.77;11.13;;;4.50;88.60;;;;;;5037486;28;20058;-83
2021/12/09 13:06:48;;;;;;;23.83;11.93;;;4.50;88.20;;;;;;5039111;28;20149;-84
2021/12/09 13:13:16;;;;;;;19.17;11.80;;;4.50;89.20;;;;;;5021743;28;20076;-84
2021/12/09 13:16:02;;;;;;;19.02;11.57;;;4.60;88.40;;;;;;5033675;28;20124;-84
2021/12/09 13:19:07;;;;;;;24.33;12.55;;;4.50;88.00;;;;;;5050832;28;20050;-83
2021/12/09 13:21:49;;;;;;;24.33;13.32;;;4.70;89.10;;;;;;5039711;28;20109;-84
2021/12/09 13:25:05;;;;;;;18.88;11.85;;;4.70;88.90;;;;;;5045722;28;20951;-84
2021/12/09 13:28:07;;;;;;;23.33;13.00;;;4.70;88.30;;;;;;5044437;28;20149;-84
2021/12/09 13:30:58;;;;;;;20.92;12.80;;;4.70;88.80;;;;;;5045246;28;20058;-84
2021/12/09 13:48:46;;;;;;;27.27;15.52;;;4.70;89.40;;;;;;5027859;28;20056;-84
2021/12/09 13:51:58;;;;;;;28.63;16.88;;;4.70;89.20;;;;;;5016028;28;20046;-84
2021/12/09 13:54:30;;;;;;;31.50;15.90;;;4.70;89.50;;;;;;5027243;28;20513;-84
2021/12/09 13:57:05;;;;;;;29.65;16.33;;;4.70;89.60;;;;;;5029900;28;20065;-84
2021/12/09 13:59:59;;;;;;;31.45;16.75;;;4.70;89.60;;;;;;5030226;28;20189;-84
2021/12/09 14:02:31;;;;;;;28.27;16.35;;;4.70;89.70;;;;;;5030067;28;20042;-84
2021/12/09 14:05:01;;;;;;;29.45;16.48;;;4.80;89.60;;;;;;5006859;28;20068;-84
2021/12/09 14:07:47;;;;;;;30.73;17.00;;;4.80;89.70;;;;;;5025744;28;20058;-85
2021/12/09 14:10:28;;;;;;;31.60;18.75;;;4.80;90.20;;;;;;5029517;28;20587;-84
2021/12/09 14:13:05;;;;;;;33.63;19.50;;;4.80;90.70;;;;;;5025104;28;20104;-84
2021/12/09 14:15:55;;;;;;;27.90;17.75;;;4.70;90.90;;;;;;5031716;28;20104;-84
2021/12/09 14:21:31;;;;;;;32.95;18.15;;;4.70;91.40;;;;;;5038354;28;20054;-85
2021/12/09 14:24:15;;;;;;;40.33;18.50;;;4.60;91.60;;;;;;5050905;28;20646;-84
2021/12/09 14:27:22;;;;;;;39.38;20.15;;;4.60;92.00;;;;;;5062392;28;20508;-84
2021/12/09 14:30:15;;;;;;;42.83;19.70;;;4.50;92.30;;;;;;5038841;28;20041;-84
2021/12/09 14:32:58;;;;;;;33.95;19.08;;;4.50;92.30;;;;;;5034851;28;20057;-84
2021/12/09 14:36:04;;;;;;;;;;;;;;;;;;;;;
2021/12/09 14:38:48;;;;;;;;;;;;;;;;;;;;;
2021/12/09 14:41:29;;;;;;;36.92;19.65;;;4.40;92.80;;;;;;5040264;28;20524;-84
2021/12/09 14:44:15;;;;;;;44.78;21.10;;;4.40;92.90;;;;;;5047844;28;20042;-84
2021/12/09 14:47:06;;;;;;;43.80;20.45;;;4.40;92.90;;;;;;5024503;28;20127;-84
2021/12/09 14:50:09;;;;;;;38.78;19.27;;;4.50;92.90;;;;;;4963309;28;20526;-84
2021/12/09 14:52:42;;;;;;;38.75;20.63;;;4.50;93.00;;;;;;4970695;28;20059;-85
2021/12/09 14:55:14;;;;;;;38.33;20.65;;;4.40;93.00;;;;;;4972777;28;20083;-85
2021/12/09 14:58:08;;;;;;;49.03;21.42;;;4.40;93.10;;;;;;4968114;28;20047;-84
2021/12/09 15:00:43;;;;;;;42.10;21.60;;;4.40;93.20;;;;;;4966267;28;20059;-84
2021/12/09 15:04:00;;;;;;;46.67;20.65;;;4.40;93.20;;;;;;4968276;28;20050;-84